Terminal Aerodrome Forecast
Issued by NWS

Home | Current Version | Previous Version | Text Only | Print | Product List | Glossary On
Versions: 1 2 3 4 5 6 7 8 9 10 11 12
428
FTUS42 KTBW 092328
TAFRSW
TAF
KRSW 092328Z 1000/1024 27011G16KT P6SM FEW030 BKN045
     FM100400 28007KT P6SM SCT025 BKN035
     FM101200 34007KT P6SM SCT025 BKN035
     FM101600 35009KT P6SM FEW025 SCT040
     FM101900 30008G19KT P6SM FEW035 SCT040=

USA.gov is the U.S. government's official web portal to all federal, state and local government web resources and services.